Hlavní strana
METAR-TAF:

METAR-TAF

Letiště :

Letiště Sofie

Sofie, Bulharsko

zeměpisná šířka: 42-39N, zeměpisná délka: 023-23E, výška: 586 m

Aktuální stav počasí

Zpráva byla vytvořena před 15 minutami, v 05:00 UTC
Jihovýchodní vítr 5 kt
Teplota 4°C
Vlhkost vzduchu 75%
Tlak 1004 hPa
Viditelnost 10 km a více
Žádná oblačnost pod 1500 m, nevyskytují se cumulonimby.

METAR: LBSF 240500Z 14005KT CAVOK 04/00 Q1004 R09/19//95 NOSIG

Čas: 07:15 (05:15 UTC)

Předpověď počasí

Zpráva byla vytvořena před 6 hodinami a 15 minutami, v 23:00 UTC
Předpověď platná od 24 v 00 UTC do 24 v 24 UTC
vítr z různých směrů 4 kt
Viditelnost: 8000 m
Oblačno až skoro zataženo ve výšce 5000 ft
Pravděpodobnost 40% :
Dočasný
od 24 v 00 UTC do 24 v 06 UTC
Viditelnost: 4000 m
Zataženo ve výšce 4000 ft
déšť

TAF: LBSF 232300Z 2400/2424 VRB04KT 8000 BKN050 PROB40 TEMPO 2400/2406 4000 RA OVC040

Stav a předpovědi počasí z více než 4 000 letišť (zprávy METAR a TAF).

Červené a žluté tečky na mapě představují dostupné meteorologické stanice.

Když kurzor umístíte na tečku, zobrazí se název stanice.

Pak kliknutím zobrazíte stav a předpověď počasí.

Chcete-li změnit mapu, kliknutím na zelené tlačítko se znaménkem +mapu přiblížíte, kliknutím na zelené tlačítko se znaménkem – mapu oddálíte a kliknutím na zelené šipky přejdete na sousední mapy.


METAR-TAF: